createdAt,value
2022-11-22T00:00:28.908Z,39.20
2022-11-22T00:01:28.900Z,37.60
2022-11-22T00:02:28.950Z,38.30
2022-11-22T00:03:28.874Z,35.60
2022-11-22T00:04:28.878Z,35.80
2022-11-22T00:05:28.855Z,40.70
2022-11-22T00:06:28.848Z,38.40
2022-11-22T00:07:28.923Z,33.30
2022-11-22T00:08:28.828Z,39.20
2022-11-22T00:09:29.049Z,34.00
2022-11-22T00:10:28.805Z,35.00
2022-11-22T00:11:28.790Z,35.30
2022-11-22T00:12:28.785Z,33.00
2022-11-22T00:13:28.770Z,38.60
2022-11-22T00:14:28.763Z,32.70
2022-11-22T00:15:28.750Z,41.90
2022-11-22T00:16:28.741Z,39.10
2022-11-22T00:17:28.735Z,33.70
2022-11-22T00:18:28.722Z,32.20
2022-11-22T00:19:28.986Z,35.60
2022-11-22T00:20:28.697Z,35.80
2022-11-22T00:21:28.685Z,34.90
2022-11-22T00:22:28.677Z,36.50
2022-11-22T00:23:28.688Z,33.30
2022-11-22T00:24:28.657Z,33.10
2022-11-22T00:25:28.642Z,34.90
2022-11-22T00:26:28.631Z,34.20
2022-11-22T00:27:28.620Z,32.90
2022-11-22T00:28:28.613Z,33.10
2022-11-22T00:29:28.941Z,35.60
2022-11-22T00:30:28.590Z,34.20
2022-11-22T00:31:28.577Z,34.60
2022-11-22T00:32:28.568Z,33.20
2022-11-22T00:33:28.558Z,32.80
2022-11-22T00:34:28.548Z,30.30
2022-11-22T00:35:28.534Z,33.30
2022-11-22T00:36:28.527Z,32.30
2022-11-22T00:37:28.512Z,31.50
2022-11-22T00:38:28.504Z,32.50
2022-11-22T00:39:28.958Z,30.60
2022-11-22T00:40:28.483Z,31.40
2022-11-22T00:41:28.473Z,28.70
2022-11-22T00:42:28.462Z,31.70
2022-11-22T00:43:28.452Z,32.10
2022-11-22T00:44:28.442Z,29.30
2022-11-22T00:45:28.432Z,32.90
2022-11-22T00:46:28.424Z,33.00
2022-11-22T00:47:28.409Z,33.70
2022-11-22T00:48:28.402Z,30.20
2022-11-22T00:49:28.659Z,28.60
2022-11-22T00:50:28.384Z,32.90
2022-11-22T00:51:28.365Z,33.30
2022-11-22T00:52:28.357Z,31.60
2022-11-22T00:53:28.347Z,34.90
2022-11-22T00:54:28.336Z,33.30
2022-11-22T00:55:28.351Z,32.40
2022-11-22T00:56:28.313Z,32.30
2022-11-22T00:57:28.306Z,35.60
2022-11-22T00:58:28.296Z,36.10
2022-11-22T00:59:28.743Z,35.50
2022-11-22T01:00:28.271Z,34.60
2022-11-22T01:01:28.317Z,31.30
2022-11-22T01:02:28.251Z,30.60
2022-11-22T01:03:28.236Z,33.90
2022-11-22T01:04:28.229Z,32.00
2022-11-22T01:05:28.217Z,31.60
2022-11-22T01:06:28.214Z,30.20
2022-11-22T01:07:28.235Z,35.20
2022-11-22T01:08:28.187Z,34.10
2022-11-22T01:09:28.573Z,33.90
2022-11-22T01:10:28.167Z,34.40
2022-11-22T01:11:28.176Z,38.80
2022-11-22T01:12:28.146Z,35.20
2022-11-22T01:13:28.136Z,32.00
2022-11-22T01:14:28.123Z,35.80
2022-11-22T01:15:28.113Z,33.00
2022-11-22T01:16:28.101Z,32.90
2022-11-22T01:17:28.088Z,34.50
2022-11-22T01:18:28.081Z,33.40
2022-11-22T01:19:28.427Z,32.60
2022-11-22T01:20:28.061Z,31.50
2022-11-22T01:21:28.052Z,34.00
2022-11-22T01:22:28.063Z,36.10
2022-11-22T01:23:28.046Z,35.10
2022-11-22T01:24:28.016Z,34.80
2022-11-22T01:25:28.005Z,36.60
2022-11-22T01:26:27.997Z,38.70
2022-11-22T01:27:28.012Z,35.30
2022-11-22T01:28:27.975Z,39.30
2022-11-22T01:29:28.253Z,35.80
2022-11-22T01:30:27.953Z,36.60
2022-11-22T01:31:27.938Z,37.50
2022-11-22T01:32:27.933Z,36.60
2022-11-22T01:33:27.919Z,40.50
2022-11-22T01:34:27.912Z,37.90
2022-11-22T01:35:27.899Z,40.80
2022-11-22T01:36:27.888Z,38.00
2022-11-22T01:37:27.875Z,39.10
2022-11-22T01:38:27.869Z,40.20
2022-11-22T01:39:28.462Z,36.80
2022-11-22T01:40:27.846Z,38.20
2022-11-22T01:41:27.835Z,40.20
2022-11-22T01:42:27.825Z,41.80
2022-11-22T01:43:27.837Z,39.50
2022-11-22T01:44:27.801Z,36.40
2022-11-22T01:45:27.789Z,40.70
2022-11-22T01:46:27.781Z,41.20
2022-11-22T01:47:27.767Z,42.50
2022-11-22T01:48:27.763Z,39.60
2022-11-22T01:49:28.130Z,42.20
2022-11-22T01:50:27.736Z,40.40
2022-11-22T01:51:27.724Z,38.30
2022-11-22T01:52:27.716Z,43.00
2022-11-22T01:53:27.704Z,39.30
2022-11-22T01:54:27.697Z,40.70
2022-11-22T01:55:27.695Z,41.70
2022-11-22T01:56:27.672Z,44.00
2022-11-22T01:57:27.661Z,40.80
2022-11-22T01:58:27.653Z,44.60
2022-11-22T01:59:27.948Z,45.20
2022-11-22T02:00:27.628Z,46.90
2022-11-22T02:01:27.739Z,43.30
2022-11-22T02:02:27.610Z,44.40
2022-11-22T02:03:27.596Z,42.90
2022-11-22T02:04:27.603Z,45.40
2022-11-22T02:05:27.573Z,45.70
2022-11-22T02:06:27.568Z,45.20
2022-11-22T02:07:27.643Z,47.60
2022-11-22T02:08:27.544Z,42.20
2022-11-22T02:09:28.087Z,50.00
2022-11-22T02:10:27.521Z,49.40
2022-11-22T02:11:33.617Z,52.40
2022-11-22T02:12:27.499Z,49.50
2022-11-22T02:13:27.487Z,46.60
2022-11-22T02:14:27.478Z,51.20
2022-11-22T02:15:27.494Z,47.20
2022-11-22T02:16:27.463Z,47.30
2022-11-22T02:17:27.449Z,49.40
2022-11-22T02:18:27.437Z,50.20
2022-11-22T02:19:27.887Z,49.60
2022-11-22T02:20:27.418Z,51.70
2022-11-22T02:21:27.404Z,54.10
2022-11-22T02:22:27.394Z,54.40
2022-11-22T02:23:27.386Z,54.50
2022-11-22T02:24:27.375Z,53.50
2022-11-22T02:25:27.361Z,50.20
2022-11-22T02:26:27.350Z,54.80
2022-11-22T02:27:27.336Z,57.60
2022-11-22T02:28:27.327Z,60.20
2022-11-22T02:29:27.773Z,55.90
2022-11-22T02:30:27.304Z,62.10
2022-11-22T02:31:27.320Z,60.20
2022-11-22T02:32:27.283Z,56.90
2022-11-22T02:33:27.271Z,55.90
2022-11-22T02:34:27.270Z,72.30
2022-11-22T02:35:27.252Z,59.80
2022-11-22T02:36:27.239Z,58.80
2022-11-22T02:37:27.256Z,58.30
2022-11-22T02:38:27.213Z,62.30
2022-11-22T02:39:27.669Z,57.50
2022-11-22T02:40:27.203Z,64.90
2022-11-22T02:41:27.184Z,72.80
2022-11-22T02:42:27.170Z,65.40
2022-11-22T02:43:27.162Z,59.30
2022-11-22T02:44:27.152Z,60.80
2022-11-22T02:45:27.140Z,58.70
2022-11-22T02:46:27.127Z,66.30
2022-11-22T02:47:27.143Z,61.70
2022-11-22T02:48:27.105Z,68.90
2022-11-22T02:49:27.125Z,68.60
2022-11-22T02:50:27.084Z,70.90
2022-11-22T02:51:27.075Z,64.20
2022-11-22T02:52:27.062Z,70.90
2022-11-22T02:53:27.053Z,70.60
2022-11-22T02:54:27.040Z,69.50
2022-11-22T02:55:27.036Z,68.30
2022-11-22T02:56:27.021Z,72.20
2022-11-22T02:57:27.011Z,83.30
2022-11-22T02:58:26.997Z,71.50
2022-11-22T02:59:27.463Z,76.00
2022-11-22T03:00:26.973Z,72.70
2022-11-22T03:01:27.033Z,79.20
2022-11-22T03:02:26.950Z,69.70
2022-11-22T03:03:26.965Z,70.80
2022-11-22T03:04:26.929Z,84.50
2022-11-22T03:05:26.917Z,76.50
2022-11-22T03:06:26.908Z,80.70
2022-11-22T03:07:27.016Z,84.70
2022-11-22T03:08:26.892Z,88.00
2022-11-22T03:09:27.162Z,84.10
2022-11-22T03:10:26.864Z,84.40
2022-11-22T03:11:26.851Z,84.30
2022-11-22T03:12:26.843Z,91.80
2022-11-22T03:13:26.830Z,92.40
2022-11-22T03:14:26.819Z,100.20
2022-11-22T03:15:26.808Z,93.00
2022-11-22T03:16:26.797Z,83.80
2022-11-22T03:17:26.787Z,94.30
2022-11-22T03:18:26.774Z,113.30
2022-11-22T03:19:26.792Z,106.60
2022-11-22T03:20:26.758Z,110.30
2022-11-22T03:21:26.746Z,107.40
2022-11-22T03:22:26.731Z,115.60
2022-11-22T03:23:26.730Z,102.70
2022-11-22T03:24:26.760Z,112.10
2022-11-22T03:25:26.700Z,107.30
2022-11-22T03:26:26.688Z,107.30
2022-11-22T03:27:26.679Z,107.00
2022-11-22T03:28:26.665Z,107.20
2022-11-22T03:29:26.668Z,111.90
2022-11-22T03:30:26.643Z,115.90
2022-11-22T03:31:26.636Z,117.70
2022-11-22T03:32:26.620Z,121.20
2022-11-22T03:33:26.615Z,126.90
2022-11-22T03:34:26.603Z,117.90
2022-11-22T03:35:26.611Z,101.20
2022-11-22T03:36:26.575Z,126.30
2022-11-22T03:39:12.038Z,126.70
2022-11-22T03:40:12.035Z,126.00
2022-11-22T03:41:12.009Z,130.10
2022-11-22T03:42:13.625Z,131.60
2022-11-22T03:43:11.989Z,130.10
2022-11-22T03:44:11.981Z,139.60
2022-11-22T03:45:11.967Z,143.80
2022-11-22T03:46:11.957Z,148.70
2022-11-22T03:47:11.944Z,127.00
2022-11-22T03:48:11.936Z,172.60
2022-11-22T03:49:11.924Z,146.30
2022-11-22T03:50:11.916Z,147.90
2022-11-22T03:51:11.931Z,153.00
2022-11-22T03:52:11.894Z,171.20
2022-11-22T03:53:11.879Z,133.50
2022-11-22T03:54:11.871Z,141.60
2022-11-22T03:55:11.860Z,136.30
2022-11-22T03:56:11.850Z,147.60
2022-11-22T03:57:11.839Z,164.50
2022-11-22T03:58:11.823Z,152.50
2022-11-22T03:59:11.813Z,190.00
2022-11-22T04:00:11.805Z,151.00
2022-11-22T04:01:16.397Z,146.80
2022-11-22T04:02:11.843Z,144.80
2022-11-22T04:03:11.766Z,144.90
2022-11-22T04:04:11.756Z,135.90
2022-11-22T04:05:11.746Z,166.90
2022-11-22T04:06:11.738Z,140.20
2022-11-22T04:07:11.815Z,157.90
2022-11-22T04:08:11.713Z,130.60
2022-11-22T04:09:11.776Z,175.10
2022-11-22T04:10:11.692Z,155.60
2022-11-22T04:11:11.676Z,162.00
2022-11-22T04:12:11.668Z,184.40
2022-11-22T04:13:11.660Z,161.00
2022-11-22T04:14:11.643Z,144.20
2022-11-22T04:15:11.629Z,153.00
2022-11-22T04:16:11.621Z,138.70
2022-11-22T04:17:11.610Z,147.20
2022-11-22T04:18:11.599Z,144.00
2022-11-22T04:19:11.586Z,129.90
2022-11-22T04:20:11.574Z,168.70
2022-11-22T04:21:11.561Z,141.60
2022-11-22T04:22:11.553Z,142.80
2022-11-22T04:23:11.567Z,145.10
2022-11-22T04:24:11.529Z,144.00
2022-11-22T04:25:11.515Z,151.70
2022-11-22T04:26:11.507Z,136.40
2022-11-22T04:27:11.492Z,153.20
2022-11-22T04:28:11.482Z,236.40
2022-11-22T04:29:11.488Z,149.70
2022-11-22T04:30:14.773Z,138.70
2022-11-22T04:31:11.452Z,133.10
2022-11-22T04:32:11.437Z,134.70
2022-11-22T04:33:11.424Z,166.70
2022-11-22T04:34:11.415Z,143.20
2022-11-22T04:35:11.403Z,156.20
2022-11-22T04:36:13.421Z,141.90
2022-11-22T04:37:11.379Z,157.40
2022-11-22T04:38:11.365Z,144.50
2022-11-22T04:39:11.378Z,187.20
2022-11-22T04:40:11.352Z,124.30
2022-11-22T04:41:11.333Z,156.40
2022-11-22T04:42:11.329Z,149.00
2022-11-22T04:43:11.309Z,192.40
2022-11-22T04:44:11.298Z,126.20
2022-11-22T04:45:11.288Z,159.20
2022-11-22T04:46:11.277Z,174.50
2022-11-22T04:47:11.261Z,120.80
2022-11-22T04:48:11.253Z,120.70
2022-11-22T04:49:11.239Z,141.00
2022-11-22T04:50:11.248Z,123.90
2022-11-22T04:51:11.218Z,130.20
2022-11-22T04:52:11.206Z,123.00
2022-11-22T04:53:11.202Z,113.30
2022-11-22T04:54:11.188Z,125.40
2022-11-22T04:55:11.197Z,143.70
2022-11-22T04:56:11.162Z,160.40
2022-11-22T04:57:11.157Z,145.10
2022-11-22T04:58:11.156Z,124.90
2022-11-22T04:59:11.143Z,129.10
2022-11-22T05:00:11.146Z,215.10
2022-11-22T05:01:11.325Z,131.60
2022-11-22T05:02:11.110Z,149.60
2022-11-22T05:03:11.098Z,137.00
2022-11-22T05:04:11.105Z,144.30
2022-11-22T05:05:11.059Z,107.00
2022-11-22T05:06:11.048Z,215.20
2022-11-22T05:07:11.087Z,144.70
2022-11-22T05:08:11.027Z,118.20
2022-11-22T05:09:11.011Z,159.10
2022-11-22T05:10:11.001Z,140.50
2022-11-22T05:11:11.014Z,124.40
2022-11-22T05:12:11.436Z,132.40
2022-11-22T05:13:10.966Z,125.60
2022-11-22T05:14:10.958Z,138.50
2022-11-22T05:15:10.943Z,119.50
2022-11-22T05:16:10.938Z,126.00
2022-11-22T05:17:13.468Z,131.20
2022-11-22T05:18:10.909Z,135.60
2022-11-22T05:19:11.132Z,135.80
2022-11-22T05:20:10.889Z,167.20
2022-11-22T05:21:10.880Z,126.50
2022-11-22T05:22:10.868Z,131.00
2022-11-22T05:23:10.853Z,131.60
2022-11-22T05:24:10.844Z,130.00
2022-11-22T05:25:10.835Z,132.30
2022-11-22T05:26:10.826Z,139.20
2022-11-22T05:27:10.831Z,125.80
2022-11-22T05:28:10.800Z,155.70
2022-11-22T05:29:10.796Z,183.00
2022-11-22T05:30:10.774Z,206.80
2022-11-22T05:31:10.766Z,132.00
2022-11-22T05:32:10.752Z,122.80
2022-11-22T05:33:10.743Z,121.40
2022-11-22T05:34:10.730Z,128.80
2022-11-22T05:35:10.719Z,122.30
2022-11-22T05:36:10.723Z,162.10
2022-11-22T05:37:10.701Z,135.50
2022-11-22T05:38:10.688Z,124.90
2022-11-22T05:39:10.672Z,132.50
2022-11-22T05:40:10.667Z,126.40
2022-11-22T05:41:10.652Z,126.50
2022-11-22T05:42:10.639Z,130.60
2022-11-22T05:43:10.662Z,147.70
2022-11-22T05:44:10.617Z,137.00
2022-11-22T05:45:10.608Z,181.90
2022-11-22T05:46:10.595Z,189.80
2022-11-22T05:47:10.589Z,152.10
2022-11-22T05:48:10.582Z,153.90
2022-11-22T05:49:10.564Z,141.70
2022-11-22T05:50:10.552Z,152.10
2022-11-22T05:51:10.545Z,150.00
2022-11-22T05:52:10.531Z,119.40
2022-11-22T05:53:10.520Z,140.60
2022-11-22T05:54:10.507Z,136.90
2022-11-22T05:55:10.591Z,214.90
2022-11-22T05:56:10.484Z,169.80
2022-11-22T05:57:10.475Z,132.20
2022-11-22T05:58:10.467Z,139.10
2022-11-22T05:59:10.484Z,130.70
2022-11-22T06:00:10.444Z,149.60
2022-11-22T06:01:10.433Z,189.50
2022-11-22T06:02:10.494Z,141.60
2022-11-22T06:03:10.415Z,114.90
2022-11-22T06:04:10.397Z,197.50
2022-11-22T06:05:10.387Z,156.50
2022-11-22T06:06:10.381Z,135.30
2022-11-22T06:07:10.713Z,143.40
2022-11-22T06:08:10.353Z,163.20
2022-11-22T06:09:10.342Z,125.40
2022-11-22T06:10:10.331Z,180.70
2022-11-22T06:11:10.322Z,172.90
2022-11-22T06:12:10.309Z,133.30
2022-11-22T06:13:10.299Z,173.50
2022-11-22T06:14:10.285Z,133.40
2022-11-22T06:15:10.303Z,163.60
2022-11-22T06:16:10.264Z,109.70
2022-11-22T06:17:10.253Z,132.10
2022-11-22T06:18:10.243Z,135.00
2022-11-22T06:19:10.231Z,125.60
2022-11-22T06:20:10.219Z,141.70
2022-11-22T06:21:10.211Z,183.30
2022-11-22T06:22:10.201Z,144.40
2022-11-22T06:23:10.188Z,158.10
2022-11-22T06:24:10.175Z,144.50
2022-11-22T06:25:10.167Z,150.70
2022-11-22T06:26:10.155Z,165.60
2022-11-22T06:27:10.154Z,167.10
2022-11-22T06:28:10.136Z,109.50
2022-11-22T06:29:10.129Z,146.30
2022-11-22T06:30:10.119Z,122.40
2022-11-22T06:31:10.135Z,120.50
2022-11-22T06:32:10.087Z,166.60
2022-11-22T06:33:10.087Z,133.80
2022-11-22T06:34:10.077Z,130.60
2022-11-22T06:35:10.058Z,189.10
2022-11-22T06:36:10.056Z,118.30
2022-11-22T06:37:10.039Z,126.30
2022-11-22T06:38:10.031Z,120.50
2022-11-22T06:39:10.012Z,116.70
2022-11-22T06:40:10.008Z,157.40
2022-11-22T06:41:10.008Z,139.50
2022-11-22T06:42:09.981Z,132.10
2022-11-22T06:43:09.974Z,135.00
2022-11-22T06:44:09.974Z,163.20
2022-11-22T06:45:09.949Z,105.50
2022-11-22T06:46:09.936Z,128.90
2022-11-22T06:47:09.946Z,124.10
2022-11-22T06:48:09.910Z,129.70
2022-11-22T06:49:09.905Z,137.70
2022-11-22T06:50:09.892Z,133.50
2022-11-22T06:51:09.882Z,147.90
2022-11-22T06:52:09.867Z,114.10
2022-11-22T06:53:26.297Z,167.20
2022-11-22T06:54:10.871Z,126.30
2022-11-22T06:55:34.621Z,129.00
2022-11-22T06:56:10.850Z,130.00
2022-11-22T06:57:09.814Z,133.00
2022-11-22T06:58:09.821Z,109.90
2022-11-22T06:59:09.789Z,129.10
2022-11-22T07:00:09.781Z,112.40
2022-11-22T07:01:09.906Z,174.30
2022-11-22T07:02:09.762Z,202.80
2022-11-22T07:03:09.774Z,123.20
2022-11-22T07:04:09.739Z,135.00
2022-11-22T07:05:25.154Z,138.50
2022-11-22T07:06:10.743Z,113.90
2022-11-22T07:07:09.738Z,162.40
2022-11-22T07:08:13.747Z,189.70
2022-11-22T07:09:09.686Z,129.40
2022-11-22T07:10:09.668Z,122.90
2022-11-22T07:11:09.697Z,118.20
2022-11-22T07:12:09.651Z,114.80
2022-11-22T07:13:09.635Z,122.50
2022-11-22T07:14:09.799Z,135.50
2022-11-22T07:15:09.726Z,109.40
2022-11-22T07:16:09.603Z,125.00
2022-11-22T07:17:09.590Z,116.20
2022-11-22T07:18:09.678Z,106.20
2022-11-22T07:19:09.601Z,142.80
2022-11-22T07:20:09.559Z,112.50
2022-11-22T07:21:13.092Z,141.60
2022-11-22T07:22:09.535Z,128.10
2022-11-22T07:23:09.527Z,112.00
2022-11-22T07:24:09.519Z,193.30
2022-11-22T07:25:09.505Z,123.30
2022-11-22T07:26:09.492Z,104.10
2022-11-22T07:27:09.480Z,156.70
2022-11-22T07:28:09.470Z,123.00
2022-11-22T07:29:09.461Z,150.40
2022-11-22T07:30:09.453Z,130.50
2022-11-22T07:31:09.438Z,116.30
2022-11-22T07:32:09.426Z,153.80
2022-11-22T07:33:09.411Z,134.10
2022-11-22T07:34:09.404Z,161.70
2022-11-22T07:35:09.426Z,136.20
2022-11-22T07:36:09.389Z,97.80
2022-11-22T07:37:09.538Z,118.10
2022-11-22T07:38:09.357Z,105.10
2022-11-22T07:39:09.352Z,108.30
2022-11-22T07:40:09.337Z,156.30
2022-11-22T07:41:09.334Z,157.50
2022-11-22T07:42:09.314Z,160.40
2022-11-22T07:43:09.305Z,152.10
2022-11-22T07:44:09.296Z,168.30
2022-11-22T07:45:09.279Z,130.80
2022-11-22T07:46:09.268Z,155.10
2022-11-22T07:47:09.259Z,105.70
2022-11-22T07:48:09.246Z,115.70
2022-11-22T07:49:09.242Z,139.80
2022-11-22T07:50:09.221Z,148.60
2022-11-22T07:51:09.242Z,126.00
2022-11-22T07:52:09.204Z,125.50
2022-11-22T07:53:09.196Z,127.30
2022-11-22T07:54:09.180Z,136.10
2022-11-22T07:55:13.924Z,111.30
2022-11-22T07:56:09.155Z,154.90
2022-11-22T07:57:09.145Z,154.30
2022-11-22T07:58:09.135Z,164.70
2022-11-22T07:59:09.129Z,146.00
2022-11-22T08:00:09.117Z,109.10
2022-11-22T08:01:09.264Z,139.80
2022-11-22T08:02:09.222Z,147.50
2022-11-22T08:03:09.087Z,130.60
2022-11-22T08:04:09.073Z,167.80
2022-11-22T08:05:09.069Z,133.80
2022-11-22T08:06:09.053Z,109.10
2022-11-22T08:07:09.191Z,210.70
2022-11-22T08:08:09.022Z,111.70
2022-11-22T08:09:09.011Z,108.50
2022-11-22T08:10:09.002Z,130.80
2022-11-22T08:11:08.999Z,116.40
2022-11-22T08:12:08.980Z,138.00
2022-11-22T08:13:08.969Z,135.10
2022-11-22T08:14:08.957Z,227.00
2022-11-22T08:15:08.960Z,125.10
2022-11-22T08:16:08.990Z,141.30
2022-11-22T08:17:08.934Z,127.40
2022-11-22T08:18:08.913Z,107.60
2022-11-22T08:19:08.907Z,122.40
2022-11-22T08:20:08.892Z,131.30
2022-11-22T08:21:08.877Z,99.90
2022-11-22T08:22:08.872Z,118.00
2022-11-22T08:23:08.977Z,104.80
2022-11-22T08:24:08.846Z,157.30
2022-11-22T08:25:08.852Z,124.40
2022-11-22T08:26:08.823Z,169.70
2022-11-22T08:27:08.812Z,132.80
2022-11-22T08:28:08.801Z,100.70
2022-11-22T08:29:13.904Z,99.40
2022-11-22T08:30:08.776Z,111.50
2022-11-22T08:31:08.797Z,124.80
2022-11-22T08:32:08.764Z,136.30
2022-11-22T08:33:08.751Z,116.80
2022-11-22T08:34:08.729Z,121.40
2022-11-22T08:35:08.723Z,149.40
2022-11-22T08:36:08.714Z,131.10
2022-11-22T08:37:08.705Z,100.20
2022-11-22T08:38:08.839Z,158.50
2022-11-22T08:39:08.870Z,257.00
2022-11-22T08:40:08.669Z,121.60
2022-11-22T08:41:08.677Z,181.80
2022-11-22T08:42:08.641Z,125.20
2022-11-22T08:43:08.634Z,233.10
2022-11-22T08:44:08.618Z,156.70
2022-11-22T08:45:08.613Z,110.30
2022-11-22T08:46:08.601Z,111.70
2022-11-22T08:47:08.589Z,143.40
2022-11-22T08:48:08.579Z,119.20
2022-11-22T08:49:08.569Z,108.00
2022-11-22T08:50:08.555Z,103.60
2022-11-22T08:51:08.568Z,102.40
2022-11-22T08:52:08.536Z,101.90
2022-11-22T08:53:08.532Z,160.80
2022-11-22T08:54:08.509Z,130.30
2022-11-22T08:55:08.621Z,130.80
2022-11-22T08:56:08.491Z,148.40
2022-11-22T08:57:08.480Z,133.20
2022-11-22T08:58:08.463Z,108.40
2022-11-22T08:59:08.526Z,99.30
2022-11-22T09:00:08.441Z,173.60
2022-11-22T09:01:08.477Z,156.90
2022-11-22T09:02:08.424Z,186.80
2022-11-22T09:03:08.409Z,99.00
2022-11-22T09:04:08.402Z,128.50
2022-11-22T09:05:08.390Z,130.00
2022-11-22T09:08:23.958Z,114.30
2022-11-22T09:09:35.910Z,107.70
2022-11-22T09:10:08.330Z,108.30
2022-11-22T09:11:08.443Z,101.80
2022-11-22T09:12:08.307Z,126.90
2022-11-22T09:13:08.296Z,93.10
2022-11-22T09:14:08.283Z,102.10
2022-11-22T09:15:08.276Z,104.80
2022-11-22T09:16:08.259Z,164.40
2022-11-22T09:17:11.982Z,90.10
2022-11-22T09:18:09.269Z,107.30
2022-11-22T09:19:08.237Z,92.50
2022-11-22T09:20:08.222Z,88.50
2022-11-22T09:21:08.204Z,93.10
2022-11-22T09:22:08.192Z,89.30
2022-11-22T09:23:08.182Z,127.30
2022-11-22T09:24:08.167Z,134.20
2022-11-22T09:25:08.162Z,87.80
2022-11-22T09:26:08.145Z,85.10
2022-11-22T09:27:08.260Z,84.60
2022-11-22T09:28:08.125Z,106.10
2022-11-22T09:29:08.123Z,109.40
2022-11-22T09:30:08.101Z,105.40
2022-11-22T09:31:08.122Z,94.30
2022-11-22T09:32:08.080Z,102.10
2022-11-22T09:33:08.070Z,98.20
2022-11-22T09:34:08.060Z,100.90
2022-11-22T09:35:08.050Z,83.40
2022-11-22T09:36:08.044Z,91.50
2022-11-22T09:37:08.028Z,95.10
2022-11-22T09:38:08.015Z,90.10
2022-11-22T09:39:08.012Z,87.80
2022-11-22T09:40:08.002Z,87.20
2022-11-22T09:41:07.981Z,90.60
2022-11-22T09:42:07.968Z,92.30
2022-11-22T09:43:08.085Z,98.00
2022-11-22T09:44:07.947Z,82.70
2022-11-22T09:45:07.942Z,106.60
2022-11-22T09:46:07.926Z,95.90
2022-11-22T09:47:07.911Z,92.00
2022-11-22T09:48:09.990Z,85.10
2022-11-22T09:49:07.891Z,83.50
2022-11-22T09:50:07.905Z,91.00
2022-11-22T09:51:07.870Z,74.80
2022-11-22T09:52:07.862Z,78.00
2022-11-22T09:53:07.846Z,88.00
2022-11-22T09:54:07.837Z,90.10
2022-11-22T09:55:07.827Z,99.50
2022-11-22T09:56:07.817Z,75.30
2022-11-22T09:57:07.802Z,87.90
2022-11-22T09:58:07.795Z,67.90
2022-11-22T09:59:07.900Z,81.60
2022-11-22T10:00:07.769Z,79.10
2022-11-22T10:01:07.810Z,79.20
2022-11-22T10:02:18.112Z,74.60
2022-11-22T10:03:08.759Z,74.20
2022-11-22T10:06:19.750Z,67.20
2022-11-22T10:07:19.739Z,66.30
2022-11-22T10:08:19.688Z,68.20
2022-11-22T10:09:19.681Z,71.10
2022-11-22T10:10:19.684Z,82.40
2022-11-22T10:11:19.658Z,62.50
2022-11-22T10:12:19.646Z,74.80
2022-11-22T10:13:19.634Z,71.80
2022-11-22T10:14:19.757Z,73.00
2022-11-22T10:15:19.611Z,64.00
2022-11-22T10:16:19.608Z,67.70
2022-11-22T10:17:19.596Z,78.10
2022-11-22T10:18:19.584Z,67.20
2022-11-22T10:19:19.571Z,62.90
2022-11-22T10:20:19.561Z,68.70
2022-11-22T10:21:19.549Z,68.70
2022-11-22T10:22:19.544Z,62.90
2022-11-22T10:23:19.528Z,62.80
2022-11-22T10:24:19.517Z,55.10
2022-11-22T10:25:19.511Z,60.20
2022-11-22T10:26:19.496Z,57.70
2022-11-22T10:27:19.489Z,65.70
2022-11-22T10:28:19.473Z,58.50
2022-11-22T10:29:19.460Z,57.60
2022-11-22T10:30:19.569Z,58.50
2022-11-22T10:31:19.438Z,70.40
2022-11-22T10:32:19.432Z,57.20
2022-11-22T10:33:19.415Z,53.70
2022-11-22T10:34:19.407Z,58.80
2022-11-22T10:35:19.404Z,56.00
2022-11-22T10:36:19.383Z,57.50
2022-11-22T10:37:19.372Z,68.60
2022-11-22T10:38:19.379Z,52.50
2022-11-22T10:39:19.347Z,50.90
2022-11-22T10:40:19.340Z,48.30
2022-11-22T10:41:19.327Z,49.90
2022-11-22T10:42:19.318Z,48.20
2022-11-22T10:43:19.304Z,49.50
2022-11-22T10:44:19.296Z,49.70
2022-11-22T10:45:19.284Z,47.90
2022-11-22T10:46:19.390Z,49.80
2022-11-22T10:47:19.261Z,53.10
2022-11-22T10:48:19.251Z,47.20
2022-11-22T10:49:19.238Z,48.90
2022-11-22T10:50:19.232Z,42.90
2022-11-22T10:51:19.221Z,42.10
2022-11-22T10:52:19.217Z,42.80
2022-11-22T10:53:19.195Z,47.70
2022-11-22T10:54:19.190Z,47.70
2022-11-22T10:55:19.175Z,42.60
2022-11-22T10:56:19.166Z,42.30
2022-11-22T10:57:19.154Z,44.90
2022-11-22T10:58:19.141Z,40.30
2022-11-22T10:59:22.071Z,43.60
2022-11-22T11:00:19.120Z,37.60
2022-11-22T11:01:19.164Z,38.70
2022-11-22T11:02:19.220Z,37.80
2022-11-22T11:03:19.090Z,38.80
2022-11-22T11:04:19.075Z,45.40
2022-11-22T11:05:19.064Z,43.90
2022-11-22T11:06:29.509Z,39.80
2022-11-22T11:07:20.138Z,44.20
2022-11-22T11:08:42.186Z,42.30
2022-11-22T11:10:32.428Z,40.30
2022-11-22T11:11:20.024Z,43.40
2022-11-22T11:12:18.988Z,40.70
2022-11-22T11:13:18.975Z,40.90
2022-11-22T11:14:18.969Z,39.10
2022-11-22T11:15:18.955Z,38.10
2022-11-22T11:16:18.946Z,36.60
2022-11-22T11:17:18.937Z,37.90
2022-11-22T11:18:19.047Z,38.40
2022-11-22T11:19:18.996Z,39.40
2022-11-22T11:20:18.953Z,39.80
2022-11-22T11:21:18.935Z,38.40
2022-11-22T11:22:36.096Z,35.50
2022-11-22T11:23:20.030Z,38.00
2022-11-22T11:24:19.067Z,32.60
2022-11-22T11:25:18.980Z,35.30
2022-11-22T11:26:19.061Z,37.60
2022-11-22T11:27:18.857Z,38.50
2022-11-22T11:28:18.834Z,36.70
2022-11-22T11:29:18.809Z,35.60
2022-11-22T11:30:18.803Z,36.60
2022-11-22T11:31:18.781Z,33.80
2022-11-22T11:32:18.780Z,34.90
2022-11-22T11:33:18.762Z,35.60
2022-11-22T11:34:18.868Z,35.30
2022-11-22T11:35:18.739Z,31.20
2022-11-22T11:36:18.724Z,30.80
2022-11-22T11:37:18.717Z,30.50
2022-11-22T11:38:18.713Z,32.00
2022-11-22T11:39:18.703Z,31.70
2022-11-22T11:40:18.692Z,35.50
2022-11-22T11:41:18.756Z,34.20
2022-11-22T11:42:18.664Z,30.30
2022-11-22T11:43:18.660Z,32.70
2022-11-22T11:44:18.636Z,33.60
2022-11-22T11:45:18.641Z,29.20
2022-11-22T11:46:18.621Z,32.80
2022-11-22T11:47:18.615Z,27.70
2022-11-22T11:48:18.597Z,32.80
2022-11-22T11:49:18.585Z,32.10
2022-11-22T11:50:23.732Z,31.30
2022-11-22T11:51:18.559Z,28.40
2022-11-22T11:52:18.553Z,29.90
2022-11-22T11:53:18.537Z,36.90
2022-11-22T11:54:18.525Z,34.30
2022-11-22T11:55:18.512Z,35.70
2022-11-22T11:56:18.502Z,32.10
2022-11-22T11:57:18.491Z,29.30
2022-11-22T11:58:18.481Z,27.20
2022-11-22T11:59:18.499Z,30.70
2022-11-22T12:00:18.486Z,30.60
2022-11-22T12:01:18.452Z,33.70
2022-11-22T12:02:18.494Z,27.30
2022-11-22T12:03:18.528Z,28.80
2022-11-22T12:04:18.521Z,29.50
2022-11-22T12:05:18.463Z,34.50
2022-11-22T12:06:18.548Z,30.80
2022-11-22T12:07:18.571Z,31.50
2022-11-22T12:08:18.500Z,30.90
2022-11-22T12:09:18.392Z,33.40
2022-11-22T12:10:18.543Z,32.00
2022-11-22T12:11:18.538Z,30.20
2022-11-22T12:12:18.399Z,30.60
2022-11-22T12:13:18.386Z,31.70
2022-11-22T12:14:20.479Z,30.10
2022-11-22T12:15:18.830Z,32.40
2022-11-22T12:16:18.329Z,31.70
2022-11-22T12:17:18.409Z,31.20
2022-11-22T12:18:18.266Z,31.60
2022-11-22T12:19:24.406Z,32.20
2022-11-22T12:20:19.265Z,30.20
2022-11-22T12:21:18.229Z,29.80
2022-11-22T12:22:29.361Z,32.30
2022-11-22T12:23:19.229Z,27.70
2022-11-22T12:25:33.277Z,35.20
2022-11-22T12:26:19.211Z,30.50
2022-11-22T12:27:18.165Z,34.70
2022-11-22T12:28:18.153Z,28.90
2022-11-22T12:29:18.156Z,36.90
2022-11-22T12:30:18.126Z,26.50
2022-11-22T12:31:18.115Z,31.10
2022-11-22T12:32:18.110Z,32.50
2022-11-22T12:33:18.095Z,33.00
2022-11-22T12:34:18.089Z,32.20
2022-11-22T12:35:18.075Z,33.70
2022-11-22T12:36:18.071Z,28.00
2022-11-22T12:37:18.107Z,28.00
2022-11-22T12:38:18.156Z,29.30
2022-11-22T12:39:18.037Z,32.40
2022-11-22T12:40:18.027Z,27.90
2022-11-22T12:41:18.009Z,30.60
2022-11-22T12:42:22.777Z,25.20
2022-11-22T12:43:18.428Z,26.10
2022-11-22T12:44:17.979Z,27.00
2022-11-22T12:45:17.980Z,29.00
2022-11-22T12:46:17.955Z,29.80
2022-11-22T12:47:17.942Z,33.30
2022-11-22T12:48:17.938Z,29.80
2022-11-22T12:49:17.920Z,28.20